Map

Track Data

SID SEASON NUMBER BASIN SUBBASIN NAME ISO_TIME NATURE LAT LON WMO_WIND WMO_PRES WMO_AGENCY TRACK_TYPE DIST2LAND LANDFALL IFLAG USA_AGENCY USA_ATCF_ID USA_LAT USA_LON USA_RECORD USA_STATUS USA_WIND USA_PRES USA_SSHS USA_R34_NE USA_R34_SE USA_R34_SW USA_R34_NW USA_R50_NE USA_R50_SE USA_R50_SW USA_R50_NW USA_R64_NE USA_R64_SE USA_R64_SW USA_R64_NW USA_POCI USA_ROCI USA_RMW USA_EYE TOKYO_LAT TOKYO_LON TOKYO_GRADE TOKYO_WIND TOKYO_PRES TOKYO_R50_DIR TOKYO_R50_LONG TOKYO_R50_SHORT TOKYO_R30_DIR TOKYO_R30_LONG TOKYO_R30_SHORT TOKYO_LAND CMA_LAT CMA_LON CMA_CAT CMA_WIND CMA_PRES HKO_LAT HKO_LON HKO_CAT HKO_WIND HKO_PRES NEWDELHI_LAT NEWDELHI_LON NEWDELHI_GRADE NEWDELHI_WIND NEWDELHI_PRES NEWDELHI_CI NEWDELHI_DP NEWDELHI_POCI REUNION_LAT REUNION_LON REUNION_TYPE REUNION_WIND REUNION_PRES REUNION_TNUM REUNION_CI REUNION_RMW REUNION_R34_NE REUNION_R34_SE REUNION_R34_SW REUNION_R34_NW REUNION_R50_NE REUNION_R50_SE REUNION_R50_SW REUNION_R50_NW REUNION_R64_NE REUNION_R64_SE REUNION_R64_SW REUNION_R64_NW BOM_LAT BOM_LON BOM_TYPE BOM_WIND BOM_PRES BOM_TNUM BOM_CI BOM_RMW BOM_R34_NE BOM_R34_SE BOM_R34_SW BOM_R34_NW BOM_R50_NE BOM_R50_SE BOM_R50_SW BOM_R50_NW BOM_R64_NE BOM_R64_SE BOM_R64_SW BOM_R64_NW BOM_ROCI BOM_POCI BOM_EYE BOM_POS_METHOD BOM_PRES_METHOD NADI_LAT NADI_LON NADI_CAT NADI_WIND NADI_PRES WELLINGTON_LAT WELLINGTON_LON WELLINGTON_WIND WELLINGTON_PRES DS824_LAT DS824_LON DS824_STAGE DS824_WIND DS824_PRES TD9636_LAT TD9636_LON TD9636_STAGE TD9636_WIND TD9636_PRES TD9635_LAT TD9635_LON TD9635_WIND TD9635_PRES TD9635_ROCI NEUMANN_LAT NEUMANN_LON NEUMANN_CLASS NEUMANN_WIND NEUMANN_PRES MLC_LAT MLC_LON MLC_CLASS MLC_WIND MLC_PRES USA_GUST BOM_GUST BOM_GUST_PER REUNION_GUST REUNION_GUST_PER USA_SEAHGT USA_SEARAD_NE USA_SEARAD_SE USA_SEARAD_SW USA_SEARAD_NW STORM_SPEED STORM_DIR
1923239N22130 1923 56 WP MM NOT_NAMED 1923-08-26 22:00:00 NR 22.0000 129.800 main 853 826 __________O___ -1 22.0000 129.800 7 9 317
1923239N22130 1923 56 WP MM NOT_NAMED 1923-08-27 00:00:00 NR 22.2131 129.588 main 826 786 __________P___ -1 22.2131 129.588 7 9 318
1923239N22130 1923 56 WP MM NOT_NAMED 1923-08-27 03:00:00 NR 22.5401 129.268 main 786 734 __________P___ -1 22.5401 129.268 7 9 318
1923239N22130 1923 56 WP MM NOT_NAMED 1923-08-27 06:00:00 NR 22.8866 128.943 main 734 693 __________P___ -1 22.8866 128.943 7 9 320
1923239N22130 1923 56 WP MM NOT_NAMED 1923-08-27 09:00:00 NR 23.2648 128.612 main 693 681 __________P___ -1 23.2648 128.612 7 10 322
1923239N22130 1923 56 WP MM NOT_NAMED 1923-08-27 10:00:00 NR 23.4000 128.500 main 681 654 __________O___ -1 23.4000 128.500 7 10 323
1923239N22130 1923 56 WP MM NOT_NAMED 1923-08-27 12:00:00 NR 23.6841 128.274 main 654 604 __________P___ -1 23.6841 128.274 7 11 325
1923239N22130 1923 56 WP MM NOT_NAMED 1923-08-27 15:00:00 NR 24.1237 127.940 main 604 567 __________P___ -1 24.1237 127.940 7 10 326
1923239N22130 1923 56 WP MM NOT_NAMED 1923-08-27 18:00:00 NR 24.5429 127.632 main 567 544 __________P___ -1 24.5429 127.632 7 9 326
1923239N22130 1923 56 WP MM NOT_NAMED 1923-08-27 21:00:00 NR 24.9011 127.372 main 544 533 __________P___ -1 24.9011 127.372 7 8 327
1923239N22130 1923 56 WP MM NOT_NAMED 1923-08-27 22:00:00 NR 25.0000 127.300 main 533 523 __________O___ -1 25.0000 127.300 3 6 324
1923239N22130 1923 56 WP MM NOT_NAMED 1923-08-28 00:00:00 NR 25.1406 127.184 main 523 513 __________P___ -1 25.1406 127.184 3 4 322
1923239N22130 1923 56 WP MM NOT_NAMED 1923-08-28 03:00:00 NR 25.2823 127.062 main 514 503 __________P___ -1 25.2823 127.062 3 3 322
1923239N22130 1923 56 WP MM NOT_NAMED 1923-08-28 06:00:00 NR 25.3769 126.981 main 504 494 __________P___ -1 25.3769 126.981 3 2 326
1923239N22130 1923 56 WP MM NOT_NAMED 1923-08-28 09:00:00 NR 25.4651 126.920 main 495 495 __________P___ -1 25.4651 126.920 3 2 330
1923239N22130 1923 56 WP MM NOT_NAMED 1923-08-28 10:00:00 NR 25.5000 126.900 main 495 486 __________O___ -1 25.5000 126.900 4 3 332
1923239N22130 1923 56 WP MM NOT_NAMED 1923-08-28 12:00:00 NR 25.6000 126.844 main 486 486 __________P___ -1 25.6000 126.844 4 3 336
1923239N22130 1923 56 WP MM NOT_NAMED 1923-08-28 15:00:00 NR 25.7625 126.767 main 489 480 __________P___ -1 25.7625 126.767 4 4 338
1923239N22130 1923 56 WP MM NOT_NAMED 1923-08-28 18:00:00 NR 25.9400 126.694 main 482 477 __________P___ -1 25.9400 126.694 4 4 341
1923239N22130 1923 56 WP MM NOT_NAMED 1923-08-28 21:00:00 NR 26.1325 126.624 main 477 477 __________P___ -1 26.1325 126.624 4 4 342
1923239N22130 1923 56 WP MM NOT_NAMED 1923-08-28 22:00:00 NR 26.2000 126.600 main 479 473 __________O___ -1 26.2000 126.600 4 4 342
1923239N22130 1923 56 WP MM NOT_NAMED 1923-08-29 00:00:00 NR 26.3386 126.545 main 473 476 __________P___ -1 26.3386 126.545 4 5 341
1923239N22130 1923 56 WP MM NOT_NAMED 1923-08-29 03:00:00 NR 26.5591 126.462 main 484 475 __________P___ -1 26.5591 126.462 4 5 342
1923239N22130 1923 56 WP MM NOT_NAMED 1923-08-29 06:00:00 NR 26.7892 126.384 main 483 479 __________P___ -1 26.7892 126.384 4 5 345
1923239N22130 1923 56 WP MM NOT_NAMED 1923-08-29 09:00:00 NR 27.0225 126.318 main 483 481 __________P___ -1 27.0225 126.318 4 5 345
1923239N22130 1923 56 WP MM NOT_NAMED 1923-08-29 10:00:00 NR 27.1000 126.300 main 481 476 __________O___ -1 27.1000 126.300 4 5 346
1923239N22130 1923 56 WP MM NOT_NAMED 1923-08-29 12:00:00 NR 27.2500 126.261 main 476 452 __________P___ -1 27.2500 126.261 4 5 348
1923239N22130 1923 56 WP MM NOT_NAMED 1923-08-29 15:00:00 NR 27.4750 126.216 main 452 442 __________P___ -1 27.4750 126.216 4 5 354
1923239N22130 1923 56 WP MM NOT_NAMED 1923-08-29 18:00:00 NR 27.7000 126.191 main 442 434 __________P___ -1 27.7000 126.191 4 5 0
1923239N22130 1923 56 WP MM NOT_NAMED 1923-08-29 21:00:00 NR 27.9250 126.193 main 434 430 __________P___ -1 27.9250 126.193 4 5 5
1923239N22130 1923 56 WP MM NOT_NAMED 1923-08-29 22:00:00 NR 28.0000 126.200 main 430 427 __________O___ -1 28.0000 126.200 4 5 0
1923239N22130 1923 56 WP MM NOT_NAMED 1923-08-30 00:00:00 NR 28.1499 126.212 main 427 421 __________P___ -1 28.1499 126.212 4 5 7
1923239N22130 1923 56 WP MM NOT_NAMED 1923-08-30 03:00:00 NR 28.3748 126.254 main 427 423 __________P___ -1 28.3748 126.254 4 5 13
1923239N22130 1923 56 WP MM NOT_NAMED 1923-08-30 06:00:00 NR 28.5998 126.331 main 423 423 __________P___ -1 28.5998 126.331 4 5 21
1923239N22130 1923 56 WP MM NOT_NAMED 1923-08-30 09:00:00 NR 28.8249 126.450 main 439 438 __________P___ -1 28.8249 126.450 4 5 27
1923239N22130 1923 56 WP MM NOT_NAMED 1923-08-30 10:00:00 NR 28.9000 126.500 main 438 417 __________O___ -1 28.9000 126.500 4 5 32
1923239N22130 1923 56 WP MM NOT_NAMED 1923-08-30 12:00:00 NR 29.0502 126.616 main 417 388 __________P___ -1 29.0502 126.616 4 6 37
1923239N22130 1923 56 WP MM NOT_NAMED 1923-08-30 15:00:00 NR 29.2755 126.823 main 388 352 __________P___ -1 29.2755 126.823 4 6 41
1923239N22130 1923 56 WP MM NOT_NAMED 1923-08-30 18:00:00 NR 29.5006 127.059 main 352 324 __________P___ -1 29.5006 127.059 4 6 44
1923239N22130 1923 56 WP MM NOT_NAMED 1923-08-30 21:00:00 NR 29.7252 127.314 main 324 310 __________P___ -1 29.7252 127.314 4 6 45
1923239N22130 1923 56 WP MM NOT_NAMED 1923-08-30 22:00:00 NR 29.8000 127.400 main 310 __________O___ -1 29.8000 127.400 7 6 48

Digital Typhoon Data and Search

About IBTrACS Database

This database is a web-friendly format of International Best Track Archive for Climate Stewardship (IBTrACS), a global best track data archive curated by NOAA dating back to 1842.

Updated: 2021-11-26